Strona główna
METAR-TAF:

METAR-TAF

Lotnisko :

Augusta, Maine, Stany Zjednoczone

Szerokość geograficzna: 44-19-14N, Długość geograficzna: 069-47-50W, wysokość: 107 m

Aktualna obserwacja pogody

Raport powstał 15 minut temu, godzina 01:53 UTC
Wiatr 3 kt od południe
Temperatura -2°C
Wilgotność 74%
Ciśnienie 1016 hPa
Widzialność: 14.5 km
bezchmurnie

METAR: KAUG 170153Z AUTO 17003KT 9SM CLR M02/M06 A3001 RMK AO2 SLP167 T10221061

czas: 21:08 (02:08 UTC)

Prognoza

Raport powstał 2 godziny i 34 minut temu, godzina 23:34 UTC
Prognoza ważna od 17 godzina 00 UTC do 17 godzina 24 UTC
Wiatr 3 kt z kierunków zmiennych
Widzialność: 10 km
Mało chmury na wysokości 4000 ft
Przerywane chmury na wysokości 25000 ft
Od 17 godzina 1400 UTC
Wiatr 10 kt od północny zachód
Widzialność: 10 km
Rozproszone chmury na wysokości 25000 ft

TAF: KAUG 162334Z 1700/1724 VRB03KT P6SM FEW040 BKN250 FM171400 31010KT P6SM SCT250

Obserwacja i prognoza pogody dla ponad 4000 lotnisk (raport METAR i TAF).

Dostępne stacje oznaczono żółtymi i czerwonymi punktami na mapie.

Najedź kursorem aby zobaczyć nazwę stacji.

Kliknij aby zobaczyć obserwacje i prognozy pogody.

Aby zmienić mapę: kliknij na zielony przycisk z czarnym krzyżykiem, aby powiększyć; na zielony przycisk z myślnikiem, aby pomniejszyć; na zielone strzałki, aby przejść do map sąsiednich.


METAR-TAF: